createdAt,value
2023-04-16T00:03:35.050Z,89.43
2023-04-16T00:07:36.922Z,89.15
2023-04-16T00:11:39.720Z,90.19
2023-04-16T00:15:41.345Z,89.68
2023-04-16T00:19:42.729Z,89.49
2023-04-16T00:23:44.541Z,88.69
2023-04-16T00:27:47.535Z,89.38
2023-04-16T00:31:49.217Z,89.32
2023-04-16T00:35:50.871Z,88.56
2023-04-16T00:39:52.487Z,87.58
2023-04-16T00:43:55.228Z,88.01
2023-04-16T00:48:00.390Z,88.37
2023-04-16T00:52:02.081Z,89.40
2023-04-16T00:56:05.534Z,90.12
2023-04-16T01:00:09.681Z,89.87
2023-04-16T01:04:11.293Z,90.03
2023-04-16T01:08:15.858Z,88.64
2023-04-16T01:12:17.279Z,90.48
2023-04-16T01:16:20.066Z,91.06
2023-04-16T01:20:24.173Z,89.46
2023-04-16T01:24:27.111Z,88.95
2023-04-16T01:28:28.547Z,88.33
2023-04-16T01:32:32.129Z,88.88
2023-04-16T01:36:33.546Z,89.86
2023-04-16T01:40:37.774Z,90.27
2023-04-16T01:44:39.130Z,90.19
2023-04-16T01:48:40.818Z,88.22
2023-04-16T01:52:42.450Z,89.52
2023-04-16T01:56:45.256Z,89.67
2023-04-16T02:00:47.174Z,91.82
2023-04-16T02:04:48.584Z,91.56
2023-04-16T02:08:50.055Z,91.38
2023-04-16T02:12:52.996Z,91.52
2023-04-16T02:16:55.657Z,90.88
2023-04-16T02:21:01.014Z,90.69
2023-04-16T02:25:02.690Z,91.10
2023-04-16T02:29:05.715Z,91.41
2023-04-16T02:33:09.044Z,91.25
2023-04-16T02:37:10.623Z,90.28
2023-04-16T02:41:12.035Z,90.33
2023-04-16T02:45:15.096Z,89.32
2023-04-16T02:49:16.534Z,89.43
2023-04-16T02:53:17.936Z,91.10
2023-04-16T02:57:19.360Z,89.73
2023-04-16T03:01:22.161Z,90.38
2023-04-16T03:05:23.955Z,90.27
2023-04-16T03:09:25.361Z,89.94
2023-04-16T03:13:26.763Z,90.96
2023-04-16T03:17:29.901Z,91.74
2023-04-16T03:21:31.317Z,91.84
2023-04-16T03:25:32.688Z,91.38
2023-04-16T03:29:36.629Z,91.53
2023-04-16T03:33:39.802Z,91.79
2023-04-16T03:37:41.165Z,91.36
2023-04-16T03:41:42.763Z,91.47
2023-04-16T03:45:44.377Z,91.82
2023-04-16T03:49:47.405Z,91.76
2023-04-16T03:53:48.968Z,91.64
2023-04-16T03:57:50.350Z,91.54
2023-04-16T04:01:51.791Z,91.96
2023-04-16T04:05:54.892Z,92.89
2023-04-16T04:09:56.269Z,92.86
2023-04-16T04:13:57.682Z,93.62
2023-04-16T04:17:59.935Z,93.42
2023-04-16T04:22:03.460Z,93.58
2023-04-16T04:26:05.037Z,92.79
2023-04-16T04:30:07.973Z,93.26
2023-04-16T04:34:09.420Z,92.64
2023-04-16T04:38:14.299Z,92.72
2023-04-16T04:42:18.452Z,92.84
2023-04-16T04:46:19.960Z,93.03
2023-04-16T04:50:21.536Z,93.46
2023-04-16T04:54:24.267Z,93.28
2023-04-16T04:58:25.659Z,92.90
2023-04-16T05:02:27.254Z,92.81
2023-04-16T05:06:29.703Z,92.83
2023-04-16T05:10:32.494Z,92.83
2023-04-16T05:14:33.957Z,93.69
2023-04-16T05:18:35.378Z,93.14
2023-04-16T05:22:36.904Z,93.55
2023-04-16T05:26:39.834Z,94.08
2023-04-16T05:30:41.249Z,94.67
2023-04-16T05:34:42.664Z,94.48
2023-04-16T05:38:44.550Z,94.50
2023-04-16T05:42:47.533Z,94.07
2023-04-16T05:46:48.908Z,93.32
2023-04-16T05:50:50.281Z,93.63
2023-04-16T05:54:51.792Z,93.56
2023-04-16T05:58:54.535Z,93.99
2023-04-16T06:02:56.214Z,94.17
2023-04-16T06:06:57.660Z,94.03
2023-04-16T06:10:59.393Z,94.20
2023-04-16T06:15:02.247Z,95.07
2023-04-16T06:19:03.690Z,95.10
2023-04-16T06:23:05.306Z,95.28
2023-04-16T06:27:06.712Z,94.96
2023-04-16T06:31:09.473Z,94.74
2023-04-16T06:35:10.933Z,94.19
2023-04-16T06:39:12.577Z,94.64
2023-04-16T06:43:14.016Z,93.54
2023-04-16T06:47:17.235Z,93.55
2023-04-16T06:51:18.887Z,93.41
2023-04-16T06:55:20.356Z,93.14
2023-04-16T06:59:21.766Z,92.50
2023-04-16T07:03:24.674Z,93.36
2023-04-16T07:07:26.165Z,94.27
2023-04-16T07:11:27.646Z,95.23
2023-04-16T07:15:29.045Z,95.35
2023-04-16T07:19:32.014Z,95.38
2023-04-16T07:23:33.603Z,95.58
2023-04-16T07:27:34.979Z,95.83
2023-04-16T07:31:36.419Z,96.99
2023-04-16T07:35:39.371Z,96.92
2023-04-16T07:39:40.838Z,96.64
2023-04-16T07:43:42.228Z,96.96
2023-04-16T07:47:43.664Z,97.15
2023-04-16T07:51:46.827Z,96.74
2023-04-16T07:55:48.224Z,97.13
2023-04-16T07:59:49.641Z,96.53
2023-04-16T08:03:51.252Z,96.40
2023-04-16T08:07:54.085Z,95.91
2023-04-16T08:11:55.551Z,95.93
2023-04-16T08:15:57.082Z,95.11
2023-04-16T08:19:58.557Z,95.33
2023-04-16T08:24:01.310Z,94.82
2023-04-16T08:28:02.683Z,93.97
2023-04-16T08:32:04.162Z,94.01
2023-04-16T08:36:06.196Z,93.11
2023-04-16T08:40:09.692Z,92.00
2023-04-16T08:44:18.497Z,90.64
2023-04-16T08:48:21.607Z,90.70
2023-04-16T08:52:25.170Z,91.93
2023-04-16T08:56:28.672Z,92.42
2023-04-16T09:00:31.724Z,90.95
2023-04-16T09:04:34.266Z,91.59
2023-04-16T09:08:35.850Z,90.80
2023-04-16T09:12:40.141Z,89.40
2023-04-16T09:16:41.992Z,87.78
2023-04-16T09:20:43.472Z,87.18
2023-04-16T09:24:44.968Z,86.57
2023-04-16T09:28:48.646Z,86.21
2023-04-16T09:32:50.804Z,84.75
2023-04-16T09:36:52.570Z,84.33
2023-04-16T09:41:06.322Z,83.62
2023-04-16T09:45:10.009Z,81.85
2023-04-16T09:49:14.652Z,81.20
2023-04-16T09:53:23.891Z,79.71
2023-04-16T09:57:25.321Z,79.54
2023-04-16T10:01:30.334Z,76.03
2023-04-16T10:05:31.831Z,77.08
2023-04-16T10:09:37.493Z,77.29
2023-04-16T10:13:39.024Z,76.59
2023-04-16T10:17:42.894Z,76.64
2023-04-16T10:21:45.571Z,75.93
2023-04-16T10:25:48.738Z,76.15
2023-04-16T10:29:50.655Z,75.67
2023-04-16T10:33:54.375Z,75.56
2023-04-16T10:37:56.607Z,76.00
2023-04-16T10:42:09.117Z,74.64
2023-04-16T10:46:23.974Z,74.93
2023-04-16T10:50:34.720Z,74.26
2023-04-16T10:54:36.553Z,74.59
2023-04-16T10:58:38.178Z,74.05
2023-04-16T11:02:40.958Z,74.11
2023-04-16T11:07:00.715Z,74.27
2023-04-16T11:11:05.283Z,73.13
2023-04-16T11:15:08.556Z,73.93
2023-04-16T11:19:16.196Z,73.73
2023-04-16T11:23:18.943Z,73.02
2023-04-16T11:27:20.347Z,72.77
2023-04-16T11:31:21.923Z,69.85
2023-04-16T11:35:23.532Z,67.88
2023-04-16T11:39:26.347Z,67.50
2023-04-16T11:43:27.805Z,67.68
2023-04-16T11:47:30.411Z,68.65
2023-04-16T11:51:31.987Z,68.83
2023-04-16T11:55:43.551Z,68.75
2023-04-16T12:00:01.553Z,69.82
2023-04-16T12:04:04.934Z,69.80
2023-04-16T12:08:08.175Z,70.40
2023-04-16T12:12:27.275Z,68.67
2023-04-16T12:16:28.809Z,69.91
2023-04-16T12:20:39.760Z,69.07
2023-04-16T12:24:41.249Z,67.99
2023-04-16T12:28:44.221Z,67.43
2023-04-16T12:32:47.386Z,67.58
2023-04-16T12:37:02.504Z,66.30
2023-04-16T12:41:04.115Z,65.43
2023-04-16T12:45:07.707Z,65.67
2023-04-16T12:49:11.032Z,64.16
2023-04-16T12:53:12.901Z,60.27
2023-04-16T12:57:14.274Z,60.53
2023-04-16T13:01:17.024Z,60.71
2023-04-16T13:05:18.711Z,60.37
2023-04-16T13:09:20.125Z,59.70
2023-04-16T13:13:21.495Z,61.88
2023-04-16T13:17:24.377Z,60.65
2023-04-16T13:21:25.906Z,60.68
2023-04-16T13:25:27.318Z,61.70
2023-04-16T13:29:28.808Z,61.50
2023-04-16T13:33:31.979Z,61.21
2023-04-16T13:37:34.512Z,60.89
2023-04-16T13:41:35.969Z,62.21
2023-04-16T13:45:37.891Z,60.29
2023-04-16T13:49:40.608Z,61.09
2023-04-16T13:53:41.970Z,61.46
2023-04-16T13:57:43.347Z,62.95
2023-04-16T14:01:44.779Z,62.98
2023-04-16T14:05:48.014Z,64.20
2023-04-16T14:09:49.394Z,61.68
2023-04-16T14:13:50.805Z,61.26
2023-04-16T14:17:52.337Z,60.72
2023-04-16T14:21:55.143Z,59.69
2023-04-16T14:25:56.789Z,60.09
2023-04-16T14:29:58.174Z,60.22
2023-04-16T14:33:59.734Z,59.51
2023-04-16T14:38:02.782Z,59.96
2023-04-16T14:42:04.679Z,60.27
2023-04-16T14:46:06.143Z,60.71
2023-04-16T14:50:08.543Z,61.48
2023-04-16T14:54:11.324Z,59.68
2023-04-16T14:58:12.710Z,58.64
2023-04-16T15:02:14.360Z,57.54
2023-04-16T15:06:16.659Z,58.16
2023-04-16T15:10:19.712Z,59.03
2023-04-16T15:14:21.258Z,57.62
2023-04-16T15:18:22.631Z,57.43
2023-04-16T15:22:24.077Z,56.74
2023-04-16T15:26:26.839Z,56.97
2023-04-16T15:30:28.236Z,62.57
2023-04-16T15:34:29.707Z,67.25
2023-04-16T15:38:31.065Z,68.24
2023-04-16T15:42:34.344Z,69.64
2023-04-16T15:46:35.823Z,69.00
2023-04-16T15:50:37.446Z,69.99
2023-04-16T15:54:39.002Z,70.23
2023-04-16T15:58:41.850Z,70.63
2023-04-16T16:02:44.675Z,70.26
2023-04-16T16:06:46.363Z,70.82
2023-04-16T16:10:47.824Z,71.40
2023-04-16T16:14:50.600Z,70.91
2023-04-16T16:18:52.062Z,71.43
2023-04-16T16:22:53.518Z,71.20
2023-04-16T16:26:55.172Z,71.37
2023-04-16T16:31:00.358Z,72.01
2023-04-16T16:35:02.363Z,72.57
2023-04-16T16:39:04.342Z,73.89
2023-04-16T16:43:05.860Z,74.59
2023-04-16T16:47:08.787Z,74.27
2023-04-16T16:51:10.344Z,74.29
2023-04-16T16:55:11.768Z,75.15
2023-04-16T16:59:13.469Z,76.26
2023-04-16T17:03:16.563Z,76.48
2023-04-16T17:07:18.284Z,76.21
2023-04-16T17:11:19.740Z,76.56
2023-04-16T17:15:21.941Z,75.51
2023-04-16T17:19:25.121Z,73.35
2023-04-16T17:23:26.582Z,73.89
2023-04-16T17:27:28.033Z,74.41
2023-04-16T17:31:29.493Z,74.83
2023-04-16T17:35:32.353Z,75.23
2023-04-16T17:39:33.753Z,75.09
2023-04-16T17:43:35.177Z,74.80
2023-04-16T17:47:37.269Z,75.04
2023-04-16T17:51:40.078Z,76.80
2023-04-16T17:55:50.156Z,77.09
2023-04-16T17:59:51.561Z,77.81
2023-04-16T18:03:53.172Z,77.39
2023-04-16T18:07:56.023Z,78.31
2023-04-16T18:11:57.629Z,77.84
2023-04-16T18:15:59.178Z,77.58
2023-04-16T18:20:00.650Z,78.85
2023-04-16T18:24:04.872Z,78.30
2023-04-16T18:28:06.314Z,79.44
2023-04-16T18:32:11.429Z,79.41
2023-04-16T18:36:13.524Z,79.27
2023-04-16T18:40:16.458Z,79.36
2023-04-16T18:44:18.067Z,79.87
2023-04-16T18:48:19.491Z,79.35
2023-04-16T18:52:20.908Z,79.90
2023-04-16T18:56:23.705Z,79.97
2023-04-16T19:00:25.130Z,80.32
2023-04-16T19:04:26.736Z,80.01
2023-04-16T19:08:28.334Z,80.45
2023-04-16T19:12:32.410Z,80.29
2023-04-16T19:16:34.118Z,79.95
2023-04-16T19:20:36.268Z,80.38
2023-04-16T19:24:37.657Z,80.00
2023-04-16T19:28:40.766Z,79.72
2023-04-16T19:32:42.305Z,80.24
2023-04-16T19:36:43.759Z,80.21
2023-04-16T19:40:45.635Z,79.77
2023-04-16T19:44:48.410Z,80.94
2023-04-16T19:48:49.877Z,80.32
2023-04-16T19:52:51.339Z,80.75
2023-04-16T19:56:52.725Z,79.50
2023-04-16T20:00:56.526Z,80.08
2023-04-16T20:04:58.025Z,80.37
2023-04-16T20:09:00.470Z,80.21
2023-04-16T20:13:01.884Z,80.73
2023-04-16T20:17:04.878Z,80.27
2023-04-16T20:21:06.427Z,80.49
2023-04-16T20:25:09.334Z,80.78
2023-04-16T20:29:10.860Z,80.88
2023-04-16T20:33:13.910Z,80.75
2023-04-16T20:37:15.396Z,80.86
2023-04-16T20:41:17.078Z,81.50
2023-04-16T20:45:20.795Z,81.84
2023-04-16T20:49:23.972Z,81.96
2023-04-16T20:53:25.508Z,82.34
2023-04-16T20:57:26.877Z,81.21
2023-04-16T21:01:28.538Z,81.44
2023-04-16T21:05:31.303Z,81.77
2023-04-16T21:09:33.010Z,81.66
2023-04-16T21:13:34.448Z,82.10
2023-04-16T21:17:36.147Z,82.02
2023-04-16T21:21:38.973Z,81.97
2023-04-16T21:25:40.497Z,82.48
2023-04-16T21:29:41.973Z,82.19
2023-04-16T21:33:43.513Z,82.46
2023-04-16T21:37:46.300Z,82.51
2023-04-16T21:41:47.971Z,83.08
2023-04-16T21:45:52.089Z,81.98
2023-04-16T21:49:53.704Z,81.87
2023-04-16T21:53:56.757Z,82.92
2023-04-16T21:57:58.202Z,83.09
2023-04-16T22:01:59.893Z,83.10
2023-04-16T22:06:01.774Z,83.33
2023-04-16T22:10:05.655Z,83.27
2023-04-16T22:14:07.182Z,83.27
2023-04-16T22:18:08.725Z,83.94
2023-04-16T22:22:11.035Z,84.04
2023-04-16T22:26:13.767Z,84.56
2023-04-16T22:30:15.443Z,85.16
2023-04-16T22:34:16.827Z,85.23
2023-04-16T22:38:18.230Z,85.22
2023-04-16T22:42:21.025Z,84.32
2023-04-16T22:46:22.756Z,84.15
2023-04-16T22:50:24.475Z,84.18
2023-04-16T22:54:27.998Z,84.59
2023-04-16T22:58:30.790Z,84.90
2023-04-16T23:02:32.235Z,84.68
2023-04-16T23:06:35.993Z,84.92
2023-04-16T23:10:37.618Z,86.21
2023-04-16T23:14:40.432Z,85.49
2023-04-16T23:18:41.848Z,86.43
2023-04-16T23:22:43.319Z,86.39
2023-04-16T23:26:45.059Z,86.46
2023-04-16T23:30:51.393Z,86.25
2023-04-16T23:34:52.948Z,86.34
2023-04-16T23:38:54.966Z,86.43
2023-04-16T23:42:56.416Z,87.31
2023-04-16T23:46:59.219Z,88.36
2023-04-16T23:51:00.770Z,87.62
2023-04-16T23:55:02.337Z,87.53
2023-04-16T23:59:03.720Z,87.56
